createdAt,value
2023-04-19T00:00:14.674Z,100389.44
2023-04-19T00:02:44.962Z,100395.66
2023-04-19T00:05:13.983Z,100393.47
2023-04-19T00:07:41.451Z,100398.50
2023-04-19T00:10:09.072Z,100398.69
2023-04-19T00:12:36.680Z,100398.84
2023-04-19T00:15:03.938Z,100400.03
2023-04-19T00:17:33.958Z,100401.06
2023-04-19T00:20:01.356Z,100404.06
2023-04-19T00:22:29.170Z,100401.88
2023-04-19T00:24:56.322Z,100401.38
2023-04-19T00:27:23.403Z,100400.38
2023-04-19T00:29:50.559Z,100405.91
2023-04-19T00:32:17.577Z,100407.09
2023-04-19T00:34:44.700Z,100407.09
2023-04-19T00:37:11.788Z,100398.06
2023-04-19T00:39:39.722Z,100402.41
2023-04-19T00:42:06.729Z,100402.06
2023-04-19T00:44:33.897Z,100402.91
2023-04-19T00:47:01.605Z,100406.44
2023-04-19T00:49:30.100Z,100406.44
2023-04-19T00:51:57.126Z,100411.78
2023-04-19T00:54:24.819Z,100414.63
2023-04-19T00:56:51.973Z,100406.59
2023-04-19T00:59:19.290Z,100411.63
2023-04-19T01:01:46.531Z,100410.59
2023-04-19T01:04:14.217Z,100414.78
2023-04-19T01:06:42.484Z,100409.44
2023-04-19T01:09:11.875Z,100414.09
2023-04-19T01:11:43.357Z,100407.91
2023-04-19T01:14:11.046Z,100420.13
2023-04-19T01:16:39.336Z,100411.44
2023-04-19T01:19:06.719Z,100408.09
2023-04-19T01:21:38.445Z,100415.63
2023-04-19T01:24:05.928Z,100423.31
2023-04-19T01:26:33.152Z,100417.78
2023-04-19T01:29:03.150Z,100419.97
2023-04-19T01:31:30.252Z,100412.78
2023-04-19T01:33:57.412Z,100412.63
2023-04-19T01:36:24.531Z,100410.94
2023-04-19T01:38:51.659Z,100412.09
2023-04-19T01:41:20.507Z,100413.44
2023-04-19T01:43:47.763Z,100422.81
2023-04-19T01:46:15.222Z,100418.13
2023-04-19T01:48:42.324Z,100421.47
2023-04-19T01:51:09.356Z,100421.47
2023-04-19T01:53:36.562Z,100421.13
2023-04-19T01:56:03.757Z,100410.91
2023-04-19T01:58:30.849Z,100409.22
2023-04-19T02:00:57.915Z,100413.25
2023-04-19T02:03:25.285Z,100414.59
2023-04-19T02:05:52.718Z,100411.41
2023-04-19T02:08:22.737Z,100405.88
2023-04-19T02:10:49.680Z,100412.75
2023-04-19T02:13:17.995Z,100407.19
2023-04-19T02:15:45.317Z,100408.00
2023-04-19T02:18:32.506Z,100404.97
2023-04-19T02:20:59.819Z,100405.31
2023-04-19T02:23:26.945Z,100414.84
2023-04-19T02:25:54.066Z,100413.97
2023-04-19T02:28:21.455Z,100418.31
2023-04-19T02:30:49.426Z,100421.00
2023-04-19T02:33:16.505Z,100417.63
2023-04-19T02:35:43.599Z,100422.97
2023-04-19T02:38:11.044Z,100418.63
2023-04-19T02:40:38.049Z,100417.13
2023-04-19T02:43:05.144Z,100421.31
2023-04-19T02:45:32.236Z,100423.66
2023-04-19T02:47:59.809Z,100421.00
2023-04-19T02:50:27.461Z,100422.34
2023-04-19T02:52:54.509Z,100425.00
2023-04-19T02:55:24.359Z,100427.91
2023-04-19T02:58:00.846Z,100422.03
2023-04-19T03:00:27.954Z,100426.38
2023-04-19T03:03:04.874Z,100428.91
2023-04-19T03:05:33.683Z,100424.91
2023-04-19T03:08:00.892Z,100423.75
2023-04-19T03:10:28.476Z,100426.06
2023-04-19T03:12:55.664Z,100427.44
2023-04-19T03:15:23.171Z,100432.13
2023-04-19T03:17:50.630Z,100433.97
2023-04-19T03:20:20.979Z,100430.28
2023-04-19T03:22:48.383Z,100435.00
2023-04-19T03:25:16.202Z,100437.38
2023-04-19T03:27:48.181Z,100436.38
2023-04-19T03:30:18.596Z,100439.06
2023-04-19T03:32:47.406Z,100430.84
2023-04-19T03:35:14.866Z,100432.00
2023-04-19T03:37:43.591Z,100431.84
2023-04-19T03:40:11.183Z,100434.53
2023-04-19T03:42:38.168Z,100430.03
2023-04-19T03:45:13.036Z,100442.56
2023-04-19T03:47:46.061Z,100440.91
2023-04-19T03:50:13.641Z,100433.03
2023-04-19T03:53:00.615Z,100432.69
2023-04-19T03:55:27.943Z,100441.22
2023-04-19T03:57:55.266Z,100440.56
2023-04-19T04:00:47.062Z,100433.88
2023-04-19T04:03:15.679Z,100436.53
2023-04-19T04:05:43.128Z,100443.56
2023-04-19T04:08:10.311Z,100442.72
2023-04-19T04:10:37.494Z,100448.38
2023-04-19T04:13:04.769Z,100440.47
2023-04-19T04:15:40.660Z,100441.38
2023-04-19T04:18:11.388Z,100438.72
2023-04-19T04:20:38.801Z,100430.56
2023-04-19T04:23:10.906Z,100435.53
2023-04-19T04:25:43.015Z,100440.56
2023-04-19T04:28:13.621Z,100436.84
2023-04-19T04:30:42.030Z,100438.34
2023-04-19T04:33:12.198Z,100438.59
2023-04-19T04:35:42.192Z,100440.16
2023-04-19T04:38:24.040Z,100437.59
2023-04-19T04:40:56.076Z,100437.38
2023-04-19T04:43:25.876Z,100438.84
2023-04-19T04:45:55.819Z,100450.84
2023-04-19T04:48:31.465Z,100454.47
2023-04-19T04:50:58.584Z,100454.22
2023-04-19T04:53:27.761Z,100446.25
2023-04-19T04:55:55.487Z,100453.34
2023-04-19T04:58:23.181Z,100453.28
2023-04-19T05:01:10.769Z,100451.97
2023-04-19T05:03:40.713Z,100462.69
2023-04-19T05:06:13.181Z,100459.22
2023-04-19T05:08:40.284Z,100469.06
2023-04-19T05:11:17.356Z,100463.47
2023-04-19T05:13:45.008Z,100469.88
2023-04-19T05:16:12.680Z,100462.38
2023-04-19T05:18:42.599Z,100464.44
2023-04-19T05:21:10.655Z,100467.03
2023-04-19T05:23:39.596Z,100464.41
2023-04-19T05:26:07.151Z,100469.44
2023-04-19T05:28:34.336Z,100466.75
2023-04-19T05:31:08.440Z,100476.28
2023-04-19T05:33:44.107Z,100476.34
2023-04-19T05:36:11.235Z,100480.19
2023-04-19T05:38:38.379Z,100485.00
2023-04-19T05:41:06.862Z,100467.34
2023-04-19T05:43:33.896Z,100474.25
2023-04-19T05:46:02.165Z,100476.72
2023-04-19T05:48:29.617Z,100476.88
2023-04-19T05:51:22.854Z,100477.41
2023-04-19T05:54:01.501Z,100483.00
2023-04-19T05:56:30.075Z,100476.97
2023-04-19T05:58:57.332Z,100473.66
2023-04-19T06:01:24.639Z,100474.22
2023-04-19T06:03:53.832Z,100478.63
2023-04-19T06:06:24.074Z,100477.16
2023-04-19T06:08:53.988Z,100479.13
2023-04-19T06:11:28.911Z,100470.91
2023-04-19T06:14:02.572Z,100485.22
2023-04-19T06:16:29.811Z,100479.72
2023-04-19T06:18:57.652Z,100477.78
2023-04-19T06:21:24.689Z,100485.22
2023-04-19T06:23:51.801Z,100484.63
2023-04-19T06:26:19.288Z,100481.38
2023-04-19T06:28:46.308Z,100483.47
2023-04-19T06:31:13.655Z,100481.38
2023-04-19T06:33:40.780Z,100486.34
2023-04-19T06:36:08.089Z,100473.13
2023-04-19T06:38:35.086Z,100485.22
2023-04-19T06:41:02.237Z,100483.56
2023-04-19T06:43:32.008Z,100482.47
2023-04-19T06:46:04.847Z,100487.97
2023-04-19T06:48:32.292Z,100483.84
2023-04-19T06:50:59.456Z,100481.38
2023-04-19T06:53:27.631Z,100481.91
2023-04-19T06:55:59.945Z,100486.25
2023-04-19T06:58:27.756Z,100490.13
2023-04-19T07:00:55.277Z,100472.56
2023-04-19T07:03:22.714Z,100477.53
2023-04-19T07:05:52.284Z,100481.13
2023-04-19T07:08:19.323Z,100489.59
2023-04-19T07:10:46.493Z,100495.19
2023-04-19T07:13:13.782Z,100480.06
2023-04-19T07:15:41.035Z,100489.47
2023-04-19T07:18:10.556Z,100477.41
2023-04-19T07:20:37.844Z,100478.19
2023-04-19T07:23:04.916Z,100470.66
2023-04-19T07:25:31.994Z,100476.97
2023-04-19T07:27:59.080Z,100468.69
2023-04-19T07:30:26.195Z,100474.94
2023-04-19T07:32:53.842Z,100472.53
2023-04-19T07:35:21.031Z,100481.56
2023-04-19T07:37:48.177Z,100483.38
2023-04-19T07:40:15.385Z,100481.25
2023-04-19T07:42:43.346Z,100475.84
2023-04-19T07:45:10.990Z,100473.88
2023-04-19T07:47:38.182Z,100472.97
2023-04-19T07:50:07.786Z,100472.72
2023-04-19T07:52:34.960Z,100483.47
2023-04-19T07:55:02.101Z,100488.41
2023-04-19T07:57:31.847Z,100480.84
2023-04-19T07:59:59.478Z,100500.75
2023-04-19T08:02:28.069Z,100486.53
2023-04-19T08:04:55.814Z,100485.94
2023-04-19T08:07:23.732Z,100477.78
2023-04-19T08:09:51.065Z,100475.72
2023-04-19T08:12:31.006Z,100472.78
2023-04-19T08:15:15.327Z,100477.72
2023-04-19T08:17:51.988Z,100476.97
2023-04-19T08:20:19.667Z,100478.47
2023-04-19T08:22:46.760Z,100472.56
2023-04-19T08:25:13.916Z,100476.97
2023-04-19T08:27:41.115Z,100490.41
2023-04-19T08:30:09.189Z,100476.81
2023-04-19T08:32:36.464Z,100474.13
2023-04-19T08:35:04.381Z,100473.88
2023-04-19T08:37:31.588Z,100470.56
2023-04-19T08:39:58.612Z,100469.88
2023-04-19T08:42:35.821Z,100467.34
2023-04-19T08:47:45.270Z,100460.88
2023-04-19T08:50:32.519Z,100472.50
2023-04-19T08:53:16.185Z,100472.06
2023-04-19T08:56:08.836Z,100465.72
2023-04-19T08:58:54.703Z,100477.41
2023-04-19T09:04:02.672Z,100459.13
2023-04-19T09:06:38.172Z,100466.16
2023-04-19T09:09:28.775Z,100467.47
2023-04-19T09:12:01.635Z,100457.78
2023-04-19T09:14:30.283Z,100456.03
2023-04-19T09:17:16.809Z,100443.16
2023-04-19T09:19:48.397Z,100441.22
2023-04-19T09:22:15.824Z,100443.44
2023-04-19T09:27:15.218Z,100438.81
2023-04-19T09:29:42.520Z,100431.38
2023-04-19T09:32:09.665Z,100429.03
2023-04-19T09:34:54.552Z,100435.50
2023-04-19T09:37:39.163Z,100431.66
2023-04-19T09:40:25.313Z,100426.63
2023-04-19T09:48:09.943Z,100417.06
2023-04-19T09:50:58.507Z,100418.28
2023-04-19T09:53:34.495Z,100425.34
2023-04-19T09:56:03.379Z,100421.59
2023-04-19T09:58:42.653Z,100408.75
2023-04-19T10:01:19.102Z,100413.13
2023-04-19T10:03:49.770Z,100419.56
2023-04-19T10:08:51.023Z,100414.69
2023-04-19T10:11:21.982Z,100421.88
2023-04-19T10:13:50.239Z,100417.28
2023-04-19T10:16:19.914Z,100406.59
2023-04-19T10:18:50.708Z,100405.31
2023-04-19T10:21:20.186Z,100413.94
2023-04-19T10:23:48.242Z,100407.34
2023-04-19T10:26:15.409Z,100403.66
2023-04-19T10:28:42.839Z,100391.00
2023-04-19T10:31:16.212Z,100391.59
2023-04-19T10:33:43.588Z,100401.53
2023-04-19T10:36:14.830Z,100394.56
2023-04-19T10:38:44.752Z,100390.06
2023-04-19T10:41:15.464Z,100382.63
2023-04-19T10:43:48.108Z,100388.16
2023-04-19T10:46:21.094Z,100385.38
2023-04-19T10:48:54.964Z,100377.44
2023-04-19T10:51:28.076Z,100390.44
2023-04-19T10:54:00.571Z,100381.81
2023-04-19T10:56:33.975Z,100382.66
2023-04-19T10:59:01.603Z,100387.59
2023-04-19T11:01:37.485Z,100389.75
2023-04-19T11:04:05.110Z,100385.53
2023-04-19T11:06:33.921Z,100384.03
2023-04-19T11:09:02.954Z,100379.97
2023-04-19T11:11:33.896Z,100382.38
2023-04-19T11:14:03.211Z,100374.91
2023-04-19T11:16:42.361Z,100362.91
2023-04-19T11:19:20.389Z,100358.38
2023-04-19T11:21:48.138Z,100356.19
2023-04-19T11:24:19.200Z,100358.66
2023-04-19T11:26:46.808Z,100365.88
2023-04-19T11:29:14.697Z,100364.09
2023-04-19T11:31:46.517Z,100361.25
2023-04-19T11:34:14.006Z,100357.84
2023-04-19T11:36:48.859Z,100350.28
2023-04-19T11:39:16.490Z,100344.03
2023-04-19T11:41:43.594Z,100354.06
2023-04-19T11:44:20.561Z,100346.69
2023-04-19T11:47:05.177Z,100347.19
2023-04-19T11:49:33.806Z,100343.13
2023-04-19T11:52:05.307Z,100347.81
2023-04-19T11:54:33.963Z,100339.69
2023-04-19T11:57:06.255Z,100343.59
2023-04-19T11:59:37.597Z,100338.41
2023-04-19T12:02:09.441Z,100335.72
2023-04-19T12:04:37.471Z,100350.75
2023-04-19T12:07:06.073Z,100347.47
2023-04-19T12:09:37.106Z,100343.38
2023-04-19T12:12:04.460Z,100340.84
2023-04-19T12:14:31.768Z,100329.78
2023-04-19T12:17:14.627Z,100335.25
2023-04-19T12:19:48.002Z,100331.31
2023-04-19T12:22:24.430Z,100328.25
2023-04-19T12:24:53.542Z,100321.78
2023-04-19T12:27:20.688Z,100327.31
2023-04-19T12:29:47.766Z,100324.16
2023-04-19T12:32:16.239Z,100323.72
2023-04-19T12:34:43.510Z,100321.63
2023-04-19T12:37:10.914Z,100311.25
2023-04-19T12:39:38.082Z,100306.22
2023-04-19T12:42:06.340Z,100322.41
2023-04-19T12:44:33.459Z,100312.19
2023-04-19T12:47:00.567Z,100316.81
2023-04-19T12:49:27.917Z,100321.25
2023-04-19T12:51:57.242Z,100307.56
2023-04-19T12:54:24.756Z,100309.41
2023-04-19T12:56:52.383Z,100301.44
2023-04-19T12:59:19.717Z,100308.09
2023-04-19T13:01:46.938Z,100298.63
2023-04-19T13:04:14.329Z,100300.72
2023-04-19T13:06:42.207Z,100309.44
2023-04-19T13:11:39.380Z,100302.66
2023-04-19T13:14:06.447Z,100312.00
2023-04-19T13:16:33.545Z,100302.66
2023-04-19T13:19:00.739Z,100300.88
2023-04-19T13:21:28.085Z,100302.13
2023-04-19T13:23:55.222Z,100305.09
2023-04-19T13:26:22.430Z,100307.22
2023-04-19T13:28:49.814Z,100307.44
2023-04-19T13:31:17.050Z,100304.72
2023-04-19T13:33:44.307Z,100308.28
2023-04-19T13:36:11.378Z,100289.31
2023-04-19T13:38:38.628Z,100295.81
2023-04-19T13:41:06.021Z,100299.34
2023-04-19T13:43:33.080Z,100297.66
2023-04-19T13:46:00.269Z,100295.19
2023-04-19T13:48:30.364Z,100293.13
2023-04-19T13:50:58.371Z,100299.78
2023-04-19T13:53:27.232Z,100295.41
2023-04-19T13:55:54.513Z,100295.38
2023-04-19T13:58:21.649Z,100298.09
2023-04-19T14:00:48.783Z,100290.13
2023-04-19T14:03:16.175Z,100295.19
2023-04-19T14:05:43.664Z,100298.59
2023-04-19T14:08:10.814Z,100299.44
2023-04-19T14:10:38.210Z,100296.13
2023-04-19T14:13:05.616Z,100300.13
2023-04-19T14:15:32.699Z,100299.47
2023-04-19T14:18:00.585Z,100293.84
2023-04-19T14:20:27.802Z,100301.09
2023-04-19T14:22:56.258Z,100295.28
2023-04-19T14:25:23.405Z,100298.25
2023-04-19T14:27:50.476Z,100298.25
2023-04-19T14:30:18.028Z,100299.06
2023-04-19T14:32:45.372Z,100294.88
2023-04-19T14:35:12.696Z,100296.78
2023-04-19T14:37:39.939Z,100301.13
2023-04-19T14:40:07.793Z,100300.53
2023-04-19T14:42:34.939Z,100293.25
2023-04-19T14:45:02.286Z,100299.06
2023-04-19T14:47:31.460Z,100296.16
2023-04-19T14:49:58.542Z,100292.03
2023-04-19T14:52:26.065Z,100293.72
2023-04-19T14:54:53.288Z,100299.53
2023-04-19T14:57:23.018Z,100297.69
2023-04-19T14:59:50.520Z,100293.50
2023-04-19T15:02:17.828Z,100292.06
2023-04-19T15:04:45.166Z,100287.09
2023-04-19T15:07:12.317Z,100280.81
2023-04-19T15:09:40.440Z,100282.53
2023-04-19T15:12:07.769Z,100288.34
2023-04-19T15:14:35.088Z,100279.41
2023-04-19T15:17:03.898Z,100281.50
2023-04-19T15:19:31.307Z,100286.28
2023-04-19T15:21:58.620Z,100286.69
2023-04-19T15:24:25.913Z,100277.13
2023-04-19T15:26:56.796Z,100292.53
2023-04-19T15:29:23.959Z,100288.78
2023-04-19T15:31:51.157Z,100282.91
2023-04-19T15:34:18.366Z,100286.84
2023-04-19T15:36:46.054Z,100294.09
2023-04-19T15:39:13.245Z,100281.19
2023-04-19T15:41:40.286Z,100288.06
2023-04-19T15:44:07.339Z,100281.81
2023-04-19T15:46:34.614Z,100276.59
2023-04-19T15:49:01.941Z,100291.13
2023-04-19T15:51:28.971Z,100279.47
2023-04-19T15:53:56.135Z,100292.09
2023-04-19T15:56:23.343Z,100289.63
2023-04-19T15:58:50.424Z,100298.13
2023-04-19T16:01:19.096Z,100293.31
2023-04-19T16:03:46.738Z,100293.72
2023-04-19T16:06:14.008Z,100291.81
2023-04-19T16:08:41.082Z,100286.78
2023-04-19T16:11:08.255Z,100288.66
2023-04-19T16:13:35.603Z,100292.81
2023-04-19T16:16:02.790Z,100295.22
2023-04-19T16:18:29.941Z,100291.66
2023-04-19T16:20:56.954Z,100287.91
2023-04-19T16:23:35.090Z,100293.47
2023-04-19T16:26:54.973Z,100288.88
2023-04-19T16:30:23.437Z,100271.59
2023-04-19T16:33:24.489Z,100272.38
2023-04-19T16:36:03.580Z,100279.44
2023-04-19T16:39:10.443Z,100279.19
2023-04-19T16:41:53.461Z,100311.19
2023-04-19T16:44:32.407Z,100284.38
2023-04-19T16:47:02.731Z,100299.97
2023-04-19T16:49:29.823Z,100312.19
2023-04-19T16:51:57.172Z,100304.72
2023-04-19T16:54:24.240Z,100311.97
2023-04-19T16:56:51.227Z,100305.75
2023-04-19T16:59:18.578Z,100314.88
2023-04-19T17:01:45.820Z,100310.72
2023-04-19T17:04:13.183Z,100305.94
2023-04-19T17:06:40.486Z,100315.66
2023-04-19T17:09:07.895Z,100310.66
2023-04-19T17:11:34.957Z,100315.03
2023-04-19T17:14:01.989Z,100314.19
2023-04-19T17:16:29.153Z,100316.25
2023-04-19T17:18:56.369Z,100312.94
2023-04-19T17:21:23.421Z,100317.50
2023-04-19T17:23:50.652Z,100322.41
2023-04-19T17:26:17.659Z,100318.28
2023-04-19T17:28:44.740Z,100313.25
2023-04-19T17:31:11.949Z,100319.66
2023-04-19T17:33:39.058Z,100315.31
2023-04-19T17:36:07.258Z,100318.41
2023-04-19T17:38:34.322Z,100307.34
2023-04-19T17:41:02.903Z,100323.53
2023-04-19T17:43:29.989Z,100328.09
2023-04-19T17:45:58.129Z,100321.41
2023-04-19T17:48:25.545Z,100320.59
2023-04-19T17:50:52.559Z,100326.16
2023-04-19T17:53:19.732Z,100315.13
2023-04-19T17:55:46.909Z,100315.31
2023-04-19T17:58:13.952Z,100315.72
2023-04-19T18:00:41.117Z,100319.44
2023-04-19T18:03:11.087Z,100318.78
2023-04-19T18:05:42.272Z,100316.28
2023-04-19T18:08:10.117Z,100315.00
2023-04-19T18:10:37.223Z,100313.06
2023-04-19T18:13:04.453Z,100317.84
2023-04-19T18:15:31.469Z,100316.53
2023-04-19T18:17:58.530Z,100315.91
2023-04-19T18:20:26.304Z,100318.97
2023-04-19T18:22:53.630Z,100323.03
2023-04-19T18:25:20.832Z,100318.03
2023-04-19T18:27:50.501Z,100320.94
2023-04-19T18:30:17.582Z,100321.31
2023-04-19T18:32:44.664Z,100317.31
2023-04-19T18:35:11.740Z,100317.06
2023-04-19T18:37:39.376Z,100327.00
2023-04-19T18:40:07.420Z,100326.91
2023-04-19T18:42:34.645Z,100321.91
2023-04-19T18:45:04.077Z,100321.91
2023-04-19T18:47:32.662Z,100313.28
2023-04-19T18:50:05.277Z,100324.34
2023-04-19T18:52:36.478Z,100320.38
2023-04-19T18:55:07.746Z,100320.00
2023-04-19T18:57:35.441Z,100320.38
2023-04-19T19:00:06.293Z,100316.75
2023-04-19T19:02:36.413Z,100313.03
2023-04-19T19:05:07.446Z,100318.44
2023-04-19T19:07:37.240Z,100320.09
2023-04-19T19:12:41.068Z,100326.88
2023-04-19T19:15:08.669Z,100322.88
2023-04-19T19:17:35.916Z,100318.91
2023-04-19T19:20:04.855Z,100326.31
2023-04-19T19:22:32.079Z,100324.81
2023-04-19T19:24:59.787Z,100318.97
2023-04-19T19:27:26.996Z,100313.34
2023-04-19T19:29:56.655Z,100311.03
2023-04-19T19:32:23.842Z,100316.41
2023-04-19T19:34:56.663Z,100314.09
2023-04-19T19:37:31.141Z,100310.91
2023-04-19T19:40:04.242Z,100313.16
2023-04-19T19:42:33.524Z,100318.53
2023-04-19T19:45:00.976Z,100308.50
2023-04-19T19:47:30.784Z,100311.19
2023-04-19T19:50:46.143Z,100309.91
2023-04-19T19:52:52.257Z,100309.63
2023-04-19T19:55:19.369Z,100311.69
2023-04-19T20:00:39.654Z,100307.03
2023-04-19T20:03:06.624Z,100306.38
2023-04-19T20:05:34.330Z,100309.06
2023-04-19T20:08:10.383Z,100312.13
2023-04-19T20:10:39.021Z,100309.34
2023-04-19T20:13:06.873Z,100304.50
2023-04-19T20:15:38.034Z,100309.88
2023-04-19T20:18:05.557Z,100303.19
2023-04-19T20:20:32.874Z,100297.50
2023-04-19T20:23:00.015Z,100305.31
2023-04-19T20:25:27.269Z,100301.31
2023-04-19T20:27:55.203Z,100304.38
2023-04-19T20:30:22.443Z,100301.06
2023-04-19T20:32:50.505Z,100289.50
2023-04-19T20:35:18.212Z,100304.78
2023-04-19T20:37:47.172Z,100301.81
2023-04-19T20:40:16.300Z,100298.47
2023-04-19T20:42:45.020Z,100292.63
2023-04-19T20:45:14.503Z,100299.84
2023-04-19T20:47:42.945Z,100291.88
2023-04-19T20:50:10.676Z,100296.88
2023-04-19T20:52:37.775Z,100287.03
2023-04-19T20:55:05.294Z,100286.84
2023-04-19T20:57:32.444Z,100279.53
2023-04-19T21:00:00.131Z,100285.72
2023-04-19T21:02:28.069Z,100291.81
2023-04-19T21:04:55.188Z,100296.34
2023-04-19T21:07:22.223Z,100290.69
2023-04-19T21:09:49.232Z,100289.00
2023-04-19T21:12:17.994Z,100292.88
2023-04-19T21:14:47.769Z,100290.09
2023-04-19T21:17:16.355Z,100292.09
2023-04-19T21:19:43.405Z,100290.78
2023-04-19T21:22:10.620Z,100291.31
2023-04-19T21:24:37.641Z,100286.31
2023-04-19T21:27:05.294Z,100285.00
2023-04-19T21:29:32.901Z,100285.00
2023-04-19T21:32:00.092Z,100284.53
2023-04-19T21:34:27.418Z,100283.53
2023-04-19T21:36:54.626Z,100274.00
2023-04-19T21:39:21.691Z,100279.91
2023-04-19T21:41:48.710Z,100272.19
2023-04-19T21:44:15.850Z,100275.91
2023-04-19T21:46:42.901Z,100274.59
2023-04-19T21:49:09.917Z,100278.47
2023-04-19T21:51:36.996Z,100265.75
2023-04-19T21:54:04.126Z,100273.97
2023-04-19T21:56:49.885Z,100266.09
2023-04-19T21:59:17.033Z,100271.78
2023-04-19T22:01:44.373Z,100266.56
2023-04-19T22:04:12.315Z,100279.16
2023-04-19T22:06:39.497Z,100278.47
2023-04-19T22:09:06.983Z,100271.66
2023-04-19T22:11:37.124Z,100271.13
2023-04-19T22:14:04.205Z,100274.84
2023-04-19T22:16:32.935Z,100262.59
2023-04-19T22:19:00.091Z,100265.63
2023-04-19T22:21:27.210Z,100267.69
2023-04-19T22:23:54.397Z,100275.03
2023-04-19T22:26:22.410Z,100268.19
2023-04-19T22:28:49.425Z,100262.00
2023-04-19T22:31:16.530Z,100248.31
2023-04-19T22:33:43.642Z,100264.53
2023-04-19T22:36:10.932Z,100254.66
2023-04-19T22:38:38.055Z,100255.34
2023-04-19T22:41:05.341Z,100256.00
2023-04-19T22:43:33.255Z,100259.53
2023-04-19T22:46:01.357Z,100260.53
2023-04-19T22:48:30.248Z,100251.63
2023-04-19T22:50:57.357Z,100256.16
2023-04-19T22:53:24.512Z,100248.47
2023-04-19T22:55:51.625Z,100254.66
2023-04-19T22:58:19.921Z,100246.97
2023-04-19T23:00:46.966Z,100242.31
2023-04-19T23:03:14.007Z,100246.34
2023-04-19T23:05:41.915Z,100246.34
2023-04-19T23:08:09.557Z,100246.69
2023-04-19T23:10:39.363Z,100243.34
2023-04-19T23:13:06.966Z,100237.69
2023-04-19T23:15:34.621Z,100239.88
2023-04-19T23:18:03.869Z,100245.22
2023-04-19T23:20:31.764Z,100240.56
2023-04-19T23:22:59.492Z,100231.00
2023-04-19T23:25:26.609Z,100229.31
2023-04-19T23:27:53.580Z,100233.84
2023-04-19T23:30:20.859Z,100234.69
2023-04-19T23:32:47.915Z,100227.66
2023-04-19T23:35:15.184Z,100230.00
2023-04-19T23:37:42.287Z,100236.03
2023-04-19T23:40:10.440Z,100233.69
2023-04-19T23:42:38.587Z,100230.72
2023-04-19T23:45:06.895Z,100231.06
2023-04-19T23:47:34.287Z,100235.72
2023-04-19T23:50:01.416Z,100231.41
2023-04-19T23:52:30.678Z,100230.72
2023-04-19T23:54:57.818Z,100230.38
2023-04-19T23:57:25.036Z,100225.69
2023-04-19T23:59:52.127Z,100220.53
